Time;durP1;ratioP1;P1;durP2;ratioP2;P2;SDS_P1;SDS_P2;PMS_P1;PMS_P2;Temp;Humidity;BMP_temperature;BMP_pressure;BME280_temperature;BME280_humidity;BME280_pressure;Samples;Min_cycle;Max_cycle;Signal;HPM_P1;HPM_P2
2021/12/15 00:01:24;;;;;;;77.78;35.13;;;;;;;;;;4893061;29;20040;-70
2021/12/15 00:03:49;;;;;;;76.70;33.70;;;;;;;;;;4893407;29;20202;-70
2021/12/15 00:06:18;;;;;;;77.78;34.75;;;;;;;;;;4892488;29;20556;-70
2021/12/15 00:08:48;;;;;;;86.20;36.53;;;;;;;;;;4899049;29;20044;-70
2021/12/15 00:11:14;;;;;;;88.93;37.22;;;;;;;;;;4894176;29;20067;-70
2021/12/15 00:13:41;;;;;;;81.30;35.63;;;;;;;;;;4889779;29;20035;-70
2021/12/15 00:16:09;;;;;;;83.65;35.90;;;;;;;;;;4900128;29;20059;-70
2021/12/15 00:18:35;;;;;;;76.10;35.47;;;;;;;;;;4893030;29;20300;-70
2021/12/15 00:21:04;;;;;;;84.90;36.97;;;;;;;;;;4891614;29;20040;-70
2021/12/15 00:23:30;;;;;;;77.82;36.33;;;;;;;;;;4889775;29;20493;-70
2021/12/15 00:25:56;;;;;;;81.43;36.13;;;;;;;;;;4893996;29;20390;-71
2021/12/15 00:28:21;;;;;;;85.50;37.30;;;;;;;;;;4891633;29;20033;-70
2021/12/15 00:30:47;;;;;;;89.90;38.17;;;;;;;;;;4887483;29;20119;-70
2021/12/15 00:33:13;;;;;;;84.82;36.60;;;;;;;;;;4905611;29;20044;-70
2021/12/15 00:35:39;;;;;;;83.75;37.50;;;;;;;;;;4889220;29;20045;-70
2021/12/15 00:38:06;;;;;;;82.20;36.03;;;;;;;;;;4906642;29;20029;-70
2021/12/15 00:40:32;;;;;;;79.57;35.47;;;;;;;;;;4891822;29;20055;-70
2021/12/15 00:42:58;;;;;;;76.00;35.05;;;;;;;;;;4883692;29;20408;-70
2021/12/15 00:45:25;;;;;;;74.65;35.28;;;;;;;;;;4888824;29;20050;-70
2021/12/15 00:47:52;;;;;;;80.78;35.30;;;;;;;;;;4889949;29;20033;-70
2021/12/15 00:50:20;;;;;;;84.40;38.08;;;;;;;;;;4892469;29;20411;-70
2021/12/15 00:52:47;;;;;;;71.53;34.63;;;;;;;;;;4886432;29;20515;-71
2021/12/15 00:55:16;;;;;;;84.13;35.97;;;;;;;;;;4894578;29;20401;-70
2021/12/15 00:57:42;;;;;;;78.75;35.20;;;;;;;;;;4904837;29;20526;-70
2021/12/15 01:00:14;;;;;;;83.35;37.83;;;;;;;;;;4892695;29;20041;-70
2021/12/15 01:02:40;;;;;;;82.03;35.58;;;;;;;;;;4884667;29;20063;-70
2021/12/15 01:05:07;;;;;;;76.85;35.55;;;;;;;;;;4896818;29;20480;-70
2021/12/15 01:07:33;;;;;;;77.32;35.42;;;;;;;;;;4905293;29;20047;-70
2021/12/15 01:09:59;;;;;;;69.50;35.15;;;;;;;;;;4891277;29;20051;-70
2021/12/15 01:20:37;;;;;;;64.88;34.83;;;;;;;;;;4886660;29;20725;-70
2021/12/15 01:23:07;;;;;;;76.63;36.17;;;;;;;;;;4889924;29;20079;-71
2021/12/15 01:25:40;;;;;;;70.82;35.00;;;;;;;;;;4889626;29;20056;-71
2021/12/15 01:28:07;;;;;;;79.78;36.10;;;;;;;;;;4889004;29;20033;-70
2021/12/15 01:30:37;;;;;;;75.88;34.90;;;;;;;;;;4900538;29;20043;-70
2021/12/15 01:33:03;;;;;;;64.93;34.55;;;;;;;;;;4888194;29;20044;-70
2021/12/15 01:35:32;;;;;;;69.28;34.50;;;;;;;;;;4886654;29;20099;-70
2021/12/15 01:37:57;;;;;;;70.25;34.80;;;;;;;;;;4905197;29;20736;-70
2021/12/15 01:40:37;;;;;;;58.03;32.40;;;;;;;;;;4900958;29;20056;-70
2021/12/15 01:43:14;;;;;;;53.13;31.75;;;;;;;;;;4902674;29;20504;-70
2021/12/15 01:48:25;;;;;;;61.03;33.08;;;;;;;;;;4888038;29;20396;-70
2021/12/15 01:50:51;;;;;;;57.50;31.90;;;;;;;;;;4889385;29;20041;-70
2021/12/15 01:53:18;;;;;;;54.97;30.45;;;;;;;;;;4887748;29;20043;-70
2021/12/15 01:55:46;;;;;;;59.25;33.20;;;;;;;;;;4888706;29;20068;-70
2021/12/15 01:58:12;;;;;;;53.83;32.08;;;;;;;;;;4890912;29;20032;-70
2021/12/15 02:00:46;;;;;;;55.78;32.20;;;;;;;;;;4890605;29;20033;-70
2021/12/15 02:03:12;;;;;;;60.15;33.08;;;;;;;;;;4897341;29;20123;-70
2021/12/15 02:05:38;;;;;;;60.45;32.25;;;;;;;;;;4887972;29;20120;-70
2021/12/15 02:08:05;;;;;;;57.92;32.53;;;;;;;;;;4890015;29;20692;-70
2021/12/15 02:10:34;;;;;;;58.45;33.40;;;;;;;;;;4895076;29;20036;-70
2021/12/15 02:13:01;;;;;;;;;;;;;;;;;;4892071;29;20044;-70
2021/12/15 02:15:31;;;;;;;51.00;29.77;;;;;;;;;;4908503;29;19923;-70
2021/12/15 02:17:58;;;;;;;58.03;31.58;;;;;;;;;;4895999;29;20040;-70
2021/12/15 02:20:48;;;;;;;47.92;31.08;;;;;;;;;;4896532;29;20044;-70
2021/12/15 02:23:18;;;;;;;50.97;29.67;;;;;;;;;;4902837;29;20037;-70
2021/12/15 02:25:44;;;;;;;47.42;29.95;;;;;;;;;;4906475;29;20631;-71
2021/12/15 02:28:11;;;;;;;57.47;32.38;;;;;;;;;;4899452;29;20037;-70
2021/12/15 02:30:52;;;;;;;59.08;31.75;;;;;;;;;;4890826;29;20080;-70
2021/12/15 02:38:43;;;;;;;54.30;31.95;;;;;;;;;;4906560;29;20032;-70
2021/12/15 02:41:19;;;;;;;54.03;31.35;;;;;;;;;;4891875;29;20107;-70
2021/12/15 02:43:51;;;;;;;55.03;30.58;;;;;;;;;;4886419;29;20055;-70
2021/12/15 02:46:18;;;;;;;50.65;29.42;;;;;;;;;;4906141;29;20052;-70
2021/12/15 02:48:43;;;;;;;54.35;31.77;;;;;;;;;;4889983;29;20080;-70
2021/12/15 02:51:09;;;;;;;47.80;29.13;;;;;;;;;;4893687;29;20048;-70
2021/12/15 02:53:35;;;;;;;53.55;29.77;;;;;;;;;;4894392;29;20065;-70
2021/12/15 02:56:01;;;;;;;57.72;31.52;;;;;;;;;;4891334;29;20500;-70
2021/12/15 02:58:32;;;;;;;55.78;30.80;;;;;;;;;;4894399;29;20104;-70
2021/12/15 03:01:07;;;;;;;53.50;29.92;;;;;;;;;;4894386;29;20045;-69
2021/12/15 03:06:14;;;;;;;46.72;28.40;;;;;;;;;;4903692;29;20278;-69
2021/12/15 03:09:11;;;;;;;50.08;29.23;;;;;;;;;;4892931;29;20044;-69
2021/12/15 03:15:20;;;;;;;46.17;28.60;;;;;;;;;;4892725;29;20107;-69
2021/12/15 03:17:21;;;;;;;46.88;28.88;;;;;;;;;;4893335;29;20041;-69
2021/12/15 03:19:46;;;;;;;46.65;28.75;;;;;;;;;;4894172;29;20095;-69
2021/12/15 03:22:12;;;;;;;45.92;28.70;;;;;;;;;;4886930;29;20044;-69
2021/12/15 03:24:37;;;;;;;51.10;28.65;;;;;;;;;;4884248;29;20033;-69
2021/12/15 03:27:09;;;;;;;43.92;28.20;;;;;;;;;;4905357;29;20044;-69
2021/12/15 03:37:48;;;;;;;36.70;25.42;;;;;;;;;;4893402;29;20040;-69
2021/12/15 03:40:36;;;;;;;39.13;25.23;;;;;;;;;;4885272;29;20049;-69
2021/12/15 03:43:07;;;;;;;37.55;25.98;;;;;;;;;;4891113;29;20266;-70
2021/12/15 03:45:38;;;;;;;35.95;24.95;;;;;;;;;;4893263;29;20062;-69
2021/12/15 03:48:10;;;;;;;32.70;24.60;;;;;;;;;;4888098;29;20048;-69
2021/12/15 03:50:36;;;;;;;37.13;25.30;;;;;;;;;;4901559;29;20092;-69
2021/12/15 03:53:02;;;;;;;34.78;25.40;;;;;;;;;;4888143;29;20116;-69
2021/12/15 03:55:30;;;;;;;34.60;25.58;;;;;;;;;;4887985;29;20546;-69
2021/12/15 03:57:57;;;;;;;36.05;25.00;;;;;;;;;;4893941;29;20040;-69
2021/12/15 04:00:24;;;;;;;34.65;24.20;;;;;;;;;;4891979;29;20033;-69
2021/12/15 04:02:50;;;;;;;39.70;26.55;;;;;;;;;;4889197;29;20184;-69
2021/12/15 04:05:18;;;;;;;39.10;24.88;;;;;;;;;;4888589;29;20036;-69
2021/12/15 04:07:45;;;;;;;36.58;26.17;;;;;;;;;;4892107;29;20036;-69
2021/12/15 04:10:15;;;;;;;36.38;26.17;;;;;;;;;;4892331;29;20040;-69
2021/12/15 04:12:42;;;;;;;37.15;25.13;;;;;;;;;;4889616;29;20051;-69
2021/12/15 04:17:53;;;;;;;40.80;26.75;;;;;;;;;;4889105;29;20051;-69
2021/12/15 04:20:21;;;;;;;36.28;25.25;;;;;;;;;;4890588;29;20048;-70
2021/12/15 04:22:48;;;;;;;36.65;25.35;;;;;;;;;;4890650;29;20337;-69
2021/12/15 04:25:19;;;;;;;36.33;24.88;;;;;;;;;;4903442;29;20031;-69
2021/12/15 04:28:19;;;;;;;38.08;25.95;;;;;;;;;;4887906;29;20032;-69
2021/12/15 04:30:50;;;;;;;31.63;24.75;;;;;;;;;;4861876;29;20053;-69
2021/12/15 04:33:23;;;;;;;32.50;24.13;;;;;;;;;;4865431;29;20079;-69
2021/12/15 04:35:49;;;;;;;35.60;25.17;;;;;;;;;;4860185;29;20064;-69
2021/12/15 04:38:15;;;;;;;33.33;23.52;;;;;;;;;;4863802;29;20033;-69
2021/12/15 04:40:41;;;;;;;32.67;24.58;;;;;;;;;;4855003;29;20054;-69
2021/12/15 04:43:08;;;;;;;29.38;23.65;;;;;;;;;;4867998;29;20037;-69
2021/12/15 04:45:34;;;;;;;34.10;22.48;;;;;;;;;;4855945;29;20099;-69
2021/12/15 04:48:00;;;;;;;32.00;24.55;;;;;;;;;;4855881;29;20132;-69
2021/12/15 04:50:28;;;;;;;32.45;23.77;;;;;;;;;;4865166;29;20037;-69
2021/12/15 04:52:55;;;;;;;32.28;24.48;;;;;;;;;;4875797;29;20044;-69
2021/12/15 04:55:21;;;;;;;37.03;25.20;;;;;;;;;;4864129;29;20064;-69
2021/12/15 04:57:48;;;;;;;36.55;24.05;;;;;;;;;;4863390;29;20043;-69
2021/12/15 05:00:20;;;;;;;34.00;23.48;;;;;;;;;;4862924;29;20060;-69
2021/12/15 05:02:47;;;;;;;38.20;25.00;;;;;;;;;;4865260;29;20045;-69
2021/12/15 05:05:13;;;;;;;37.00;24.48;;;;;;;;;;4857799;29;20072;-69
2021/12/15 05:07:40;;;;;;;36.67;23.65;;;;;;;;;;4888560;29;20052;-69
2021/12/15 05:10:08;;;;;;;41.45;26.05;;;;;;;;;;4891755;29;20041;-69
2021/12/15 05:12:36;;;;;;;36.13;25.20;;;;;;;;;;4892521;29;20044;-69
2021/12/15 05:15:04;;;;;;;36.08;23.83;;;;;;;;;;4892559;29;20385;-69
2021/12/15 05:17:29;;;;;;;34.45;23.95;;;;;;;;;;4886415;29;20087;-70
2021/12/15 05:19:59;;;;;;;39.85;26.30;;;;;;;;;;4891454;29;20481;-70
2021/12/15 05:22:25;;;;;;;39.30;26.20;;;;;;;;;;4891995;29;20060;-70
2021/12/15 05:24:51;;;;;;;35.45;24.42;;;;;;;;;;4889075;29;20029;-69
2021/12/15 05:27:17;;;;;;;35.00;23.90;;;;;;;;;;4889045;29;20039;-70
2021/12/15 05:29:47;;;;;;;34.40;24.27;;;;;;;;;;4906900;29;20036;-69
2021/12/15 05:32:18;;;;;;;37.28;25.10;;;;;;;;;;4900146;29;20045;-70
2021/12/15 05:34:45;;;;;;;42.03;26.20;;;;;;;;;;4888194;29;20049;-70
2021/12/15 05:37:12;;;;;;;38.58;25.17;;;;;;;;;;4889948;29;20041;-70
2021/12/15 05:39:39;;;;;;;36.42;24.52;;;;;;;;;;4892396;29;20028;-71
2021/12/15 05:42:05;;;;;;;37.00;23.70;;;;;;;;;;4902122;29;20138;-69
2021/12/15 05:44:31;;;;;;;36.63;24.17;;;;;;;;;;4909141;29;20049;-70
2021/12/15 05:47:00;;;;;;;34.85;22.85;;;;;;;;;;4895761;29;20095;-69
2021/12/15 05:49:26;;;;;;;35.22;24.40;;;;;;;;;;4895971;29;20039;-69
2021/12/15 05:51:53;;;;;;;37.38;24.30;;;;;;;;;;4891563;29;20282;-70
2021/12/15 05:54:19;;;;;;;32.50;24.02;;;;;;;;;;4889786;29;20548;-70
2021/12/15 05:56:44;;;;;;;39.28;23.63;;;;;;;;;;4894966;29;20041;-69
2021/12/15 05:59:10;;;;;;;32.65;23.35;;;;;;;;;;4890132;29;20025;-70
2021/12/15 06:01:36;;;;;;;35.40;24.85;;;;;;;;;;4894612;29;20064;-69
2021/12/15 06:04:05;;;;;;;34.17;23.65;;;;;;;;;;4894769;29;20049;-69
2021/12/15 06:06:31;;;;;;;32.72;23.33;;;;;;;;;;4894823;29;20067;-70
2021/12/15 06:08:56;;;;;;;35.78;24.73;;;;;;;;;;4908169;29;20068;-70
2021/12/15 06:11:22;;;;;;;35.35;24.08;;;;;;;;;;4895237;29;20047;-70
2021/12/15 06:13:50;;;;;;;36.78;24.58;;;;;;;;;;4895291;29;20047;-70
2021/12/15 06:16:18;;;;;;;36.05;22.80;;;;;;;;;;4903766;29;20049;-70
2021/12/15 06:18:45;;;;;;;33.90;23.70;;;;;;;;;;4891913;29;20029;-69
2021/12/15 06:21:11;;;;;;;31.08;22.42;;;;;;;;;;4895032;29;20342;-70
2021/12/15 06:23:37;;;;;;;30.70;22.23;;;;;;;;;;4895190;29;20052;-70
2021/12/15 06:26:05;;;;;;;35.05;24.05;;;;;;;;;;4890628;29;20079;-70
2021/12/15 06:28:32;;;;;;;27.08;21.35;;;;;;;;;;4894537;29;20037;-70
2021/12/15 06:30:59;;;;;;;29.17;22.60;;;;;;;;;;4895060;29;20037;-70
2021/12/15 06:33:27;;;;;;;32.42;23.67;;;;;;;;;;4894695;29;20033;-70
2021/12/15 06:35:56;;;;;;;30.17;22.42;;;;;;;;;;4892277;29;20044;-70
2021/12/15 06:38:30;;;;;;;31.10;22.23;;;;;;;;;;4894621;29;20135;-70
2021/12/15 06:40:57;;;;;;;30.88;21.75;;;;;;;;;;4900128;29;20052;-70
2021/12/15 06:43:24;;;;;;;34.28;23.45;;;;;;;;;;4891562;29;20033;-70
2021/12/15 06:46:20;;;;;;;31.42;22.90;;;;;;;;;;4891169;29;20084;-70
2021/12/15 06:59:34;;;;;;;36.85;28.88;;;;;;;;;;4893600;29;20032;-70
2021/12/15 07:02:01;;;;;;;25.40;21.17;;;;;;;;;;4889856;29;20087;-69
2021/12/15 07:04:26;;;;;;;26.15;21.38;;;;;;;;;;4893805;29;20033;-69
2021/12/15 07:06:52;;;;;;;26.23;21.42;;;;;;;;;;4902741;29;20567;-69
2021/12/15 07:09:19;;;;;;;47.50;42.30;;;;;;;;;;4891649;29;20472;-69
2021/12/15 07:11:45;;;;;;;27.27;22.75;;;;;;;;;;4893826;29;20072;-68
2021/12/15 07:14:11;;;;;;;22.58;20.05;;;;;;;;;;4892163;29;20401;-68
2021/12/15 07:16:41;;;;;;;22.85;19.35;;;;;;;;;;4893618;29;20033;-69
2021/12/15 07:19:16;;;;;;;26.40;21.98;;;;;;;;;;4893196;29;20322;-69
2021/12/15 07:21:52;;;;;;;22.65;18.67;;;;;;;;;;4887816;29;20107;-69
2021/12/15 07:24:18;;;;;;;23.42;18.95;;;;;;;;;;4890813;29;20265;-69
2021/12/15 07:26:44;;;;;;;20.90;18.58;;;;;;;;;;4891435;29;20044;-69
2021/12/15 07:29:09;;;;;;;20.13;18.08;;;;;;;;;;4892761;29;20556;-68
2021/12/15 07:31:36;;;;;;;20.58;18.38;;;;;;;;;;4891861;29;20176;-69
2021/12/15 07:34:03;;;;;;;20.52;18.45;;;;;;;;;;4892185;29;20036;-69
2021/12/15 07:36:28;;;;;;;21.02;18.83;;;;;;;;;;4893792;29;20040;-69
2021/12/15 07:38:56;;;;;;;21.85;19.55;;;;;;;;;;4904507;29;20028;-68
2021/12/15 07:41:29;;;;;;;21.70;19.55;;;;;;;;;;4891910;29;20101;-69
2021/12/15 07:43:59;;;;;;;22.02;19.70;;;;;;;;;;4893544;29;20382;-69
2021/12/15 07:46:26;;;;;;;20.90;18.73;;;;;;;;;;4893139;29;20040;-69
2021/12/15 07:48:52;;;;;;;20.95;18.77;;;;;;;;;;4891925;29;20456;-69
2021/12/15 07:51:17;;;;;;;23.63;19.40;;;;;;;;;;4892540;29;20032;-69
2021/12/15 07:53:43;;;;;;;19.38;17.52;;;;;;;;;;4908111;29;20048;-69
2021/12/15 07:56:10;;;;;;;20.58;18.35;;;;;;;;;;4892951;29;20400;-69
2021/12/15 07:58:36;;;;;;;19.85;17.95;;;;;;;;;;4888748;29;20195;-69
2021/12/15 08:01:05;;;;;;;19.58;17.55;;;;;;;;;;4892724;29;20424;-68
2021/12/15 08:03:34;;;;;;;19.15;17.13;;;;;;;;;;4889578;29;20139;-69
2021/12/15 08:06:01;;;;;;;21.88;18.25;;;;;;;;;;4890469;29;20040;-68
2021/12/15 08:08:27;;;;;;;18.38;16.58;;;;;;;;;;4889134;29;20037;-69
2021/12/15 08:10:56;;;;;;;31.25;23.88;;;;;;;;;;4892297;29;20048;-69
2021/12/15 08:13:24;;;;;;;31.33;23.00;;;;;;;;;;4882601;29;20393;-69
2021/12/15 08:15:50;;;;;;;41.85;26.45;;;;;;;;;;4902663;29;20515;-69
2021/12/15 08:18:15;;;;;;;27.83;21.13;;;;;;;;;;4891891;29;20040;-69
2021/12/15 08:20:41;;;;;;;15.77;14.45;;;;;;;;;;4891292;29;20043;-69
2021/12/15 08:23:08;;;;;;;17.08;15.48;;;;;;;;;;4905115;29;20059;-69
2021/12/15 08:25:35;;;;;;;16.45;14.95;;;;;;;;;;4892381;29;20043;-68
2021/12/15 08:28:01;;;;;;;16.55;15.02;;;;;;;;;;4898397;29;20356;-69
2021/12/15 08:30:29;;;;;;;16.95;15.45;;;;;;;;;;4899507;29;20047;-68
2021/12/15 08:32:58;;;;;;;16.75;15.15;;;;;;;;;;4894614;29;20048;-68
2021/12/15 08:35:29;;;;;;;15.82;14.48;;;;;;;;;;4894699;29;20411;-68
2021/12/15 08:37:56;;;;;;;16.02;14.63;;;;;;;;;;4898717;29;20037;-68
2021/12/15 08:40:23;;;;;;;16.48;14.82;;;;;;;;;;4893752;29;20039;-69
2021/12/15 08:42:49;;;;;;;16.77;15.23;;;;;;;;;;4894089;29;20036;-68
2021/12/15 08:45:16;;;;;;;18.48;15.55;;;;;;;;;;4894406;29;20032;-69
2021/12/15 08:47:42;;;;;;;16.60;15.05;;;;;;;;;;4893970;29;20059;-69
2021/12/15 08:50:12;;;;;;;17.00;15.38;;;;;;;;;;4890790;29;20481;-69
2021/12/15 08:52:38;;;;;;;16.33;14.93;;;;;;;;;;4897219;29;20449;-69
2021/12/15 08:55:06;;;;;;;16.40;14.73;;;;;;;;;;4902027;29;20155;-69
2021/12/15 08:57:31;;;;;;;17.63;14.75;;;;;;;;;;4895110;29;20036;-69
2021/12/15 08:59:57;;;;;;;15.75;14.38;;;;;;;;;;4890729;29;20032;-69
2021/12/15 09:02:23;;;;;;;16.83;15.23;;;;;;;;;;4887509;29;20282;-70
2021/12/15 09:04:48;;;;;;;15.98;14.43;;;;;;;;;;4892042;29;20028;-69
2021/12/15 09:07:14;;;;;;;15.85;14.45;;;;;;;;;;4889249;29;20032;-70
2021/12/15 09:09:40;;;;;;;15.63;14.23;;;;;;;;;;4890156;29;20124;-69
2021/12/15 09:12:07;;;;;;;17.58;16.02;;;;;;;;;;4891240;29;20048;-69
2021/12/15 09:14:33;;;;;;;17.80;16.20;;;;;;;;;;4904339;29;21641;-70
2021/12/15 09:17:01;;;;;;;224.30;85.10;;;;;;;;;;4904813;29;20115;-70
2021/12/15 09:19:27;;;;;;;32.85;21.20;;;;;;;;;;4891165;29;20353;-70
2021/12/15 09:21:55;;;;;;;16.13;14.82;;;;;;;;;;4891781;29;20041;-69
2021/12/15 09:24:22;;;;;;;15.60;14.20;;;;;;;;;;4888946;29;20643;-69
2021/12/15 09:26:47;;;;;;;17.05;14.75;;;;;;;;;;4891271;29;20044;-69
2021/12/15 09:29:13;;;;;;;18.52;16.58;;;;;;;;;;4892004;29;20164;-69
2021/12/15 09:31:39;;;;;;;19.17;14.85;;;;;;;;;;4887843;29;20041;-69
2021/12/15 09:34:06;;;;;;;16.00;14.60;;;;;;;;;;4889968;29;20127;-69
2021/12/15 09:36:33;;;;;;;15.68;14.18;;;;;;;;;;4888331;29;20083;-70
2021/12/15 09:39:07;;;;;;;14.65;13.35;;;;;;;;;;4891550;29;20032;-70
2021/12/15 09:41:33;;;;;;;15.32;14.02;;;;;;;;;;4882641;29;20123;-69
2021/12/15 09:44:06;;;;;;;14.95;13.65;;;;;;;;;;4886993;29;20079;-69
2021/12/15 09:57:27;;;;;;;17.73;15.13;;;;;;;;;;4890068;29;20088;-69
2021/12/15 10:02:49;;;;;;;15.80;14.32;;;;;;;;;;4889495;29;20043;-69
2021/12/15 10:05:32;;;;;;;15.70;14.40;;;;;;;;;;4889585;29;20036;-70
2021/12/15 10:11:11;;;;;;;17.52;15.93;;;;;;;;;;4889300;29;20044;-69
2021/12/15 10:19:42;;;;;;;14.25;13.05;;;;;;;;;;4870805;29;20121;-70
2021/12/15 10:22:28;;;;;;;23.05;18.80;;;;;;;;;;4887082;29;20045;-70
2021/12/15 10:25:03;;;;;;;39.85;23.65;;;;;;;;;;4903950;29;20059;-70
2021/12/15 10:27:38;;;;;;;21.55;18.92;;;;;;;;;;4890330;29;20464;-70
2021/12/15 10:30:10;;;;;;;15.18;13.77;;;;;;;;;;4910598;29;20048;-70
2021/12/15 10:32:38;;;;;;;15.77;14.43;;;;;;;;;;4894199;29;20032;-69
2021/12/15 10:35:09;;;;;;;16.55;14.93;;;;;;;;;;4894014;29;20131;-69
2021/12/15 10:37:36;;;;;;;20.83;18.73;;;;;;;;;;4903251;29;20044;-69
2021/12/15 10:40:31;;;;;;;17.27;15.77;;;;;;;;;;4894278;29;20085;-69
2021/12/15 10:43:03;;;;;;;16.27;14.70;;;;;;;;;;4871366;29;20056;-69
2021/12/15 10:45:35;;;;;;;15.73;14.32;;;;;;;;;;4871329;29;20048;-69
2021/12/15 10:48:01;;;;;;;15.85;14.45;;;;;;;;;;4874909;29;20135;-71
2021/12/15 10:50:27;;;;;;;16.55;14.90;;;;;;;;;;4853393;29;20104;-68
2021/12/15 10:53:02;;;;;;;16.73;15.23;;;;;;;;;;4872121;29;20576;-68
2021/12/15 10:55:33;;;;;;;18.02;14.75;;;;;;;;;;4853712;29;20048;-71
2021/12/15 10:58:00;;;;;;;17.45;15.95;;;;;;;;;;4872316;29;20049;-70
2021/12/15 11:00:32;;;;;;;16.58;15.05;;;;;;;;;;4874851;29;20132;-69
2021/12/15 11:03:14;;;;;;;16.55;15.13;;;;;;;;;;4871214;29;20038;-69
2021/12/15 11:05:39;;;;;;;14.68;13.57;;;;;;;;;;4856218;29;20185;-69
2021/12/15 11:08:05;;;;;;;15.68;14.48;;;;;;;;;;4857116;29;20077;-69
2021/12/15 11:10:34;;;;;;;14.80;13.60;;;;;;;;;;4871998;29;20041;-70
2021/12/15 11:13:12;;;;;;;14.52;13.43;;;;;;;;;;4871702;29;20068;-69
2021/12/15 11:15:42;;;;;;;15.10;14.00;;;;;;;;;;4875133;29;20048;-69
2021/12/15 11:18:17;;;;;;;15.55;14.35;;;;;;;;;;4868828;29;20569;-69
2021/12/15 11:20:46;;;;;;;15.38;14.27;;;;;;;;;;4884107;29;20512;-69
2021/12/15 11:23:17;;;;;;;16.63;15.07;;;;;;;;;;4891863;29;20040;-70
2021/12/15 11:25:46;;;;;;;16.50;15.20;;;;;;;;;;4889793;29;20064;-70
2021/12/15 11:28:27;;;;;;;15.55;14.35;;;;;;;;;;4901274;29;20064;-69
2021/12/15 11:31:06;;;;;;;13.93;12.93;;;;;;;;;;4892464;29;20516;-69
2021/12/15 11:33:41;;;;;;;14.70;13.68;;;;;;;;;;4905998;29;20044;-70
2021/12/15 11:36:11;;;;;;;16.17;14.93;;;;;;;;;;4905905;29;20041;-70
2021/12/15 11:38:41;;;;;;;15.00;13.85;;;;;;;;;;4907234;29;20036;-69
2021/12/15 11:41:39;;;;;;;15.30;14.18;;;;;;;;;;4890827;29;20040;-70
2021/12/15 11:44:11;;;;;;;15.43;14.18;;;;;;;;;;4906587;29;20037;-69
2021/12/15 11:46:46;;;;;;;14.85;13.82;;;;;;;;;;4883799;29;20480;-69
2021/12/15 11:49:14;;;;;;;14.77;13.68;;;;;;;;;;4892686;29;20094;-69
2021/12/15 11:51:47;;;;;;;15.85;14.65;;;;;;;;;;4892529;29;20033;-70
2021/12/15 11:54:14;;;;;;;15.45;14.23;;;;;;;;;;4892042;29;20264;-69
2021/12/15 11:56:40;;;;;;;15.55;14.25;;;;;;;;;;4893812;29;20273;-69
2021/12/15 11:59:20;;;;;;;15.23;14.02;;;;;;;;;;4890797;29;20760;-70
2021/12/15 12:02:07;;;;;;;14.57;13.57;;;;;;;;;;4905644;29;20116;-68
2021/12/15 12:04:46;;;;;;;17.15;15.60;;;;;;;;;;4890723;29;20033;-69
2021/12/15 12:07:28;;;;;;;16.45;15.07;;;;;;;;;;4891251;29;20060;-69
2021/12/15 12:09:57;;;;;;;15.93;14.75;;;;;;;;;;4891008;29;20347;-69
2021/12/15 12:12:25;;;;;;;18.23;16.50;;;;;;;;;;4890542;29;20040;-70
2021/12/15 12:14:51;;;;;;;16.45;14.88;;;;;;;;;;4887850;29;20293;-69
2021/12/15 12:17:22;;;;;;;15.43;14.00;;;;;;;;;;4890000;29;20037;-70
2021/12/15 12:19:57;;;;;;;14.23;13.23;;;;;;;;;;4885897;29;20035;-69
2021/12/15 12:22:25;;;;;;;14.63;13.43;;;;;;;;;;4892325;29;20055;-70
2021/12/15 12:24:54;;;;;;;15.23;13.93;;;;;;;;;;4891405;29;20036;-69
2021/12/15 12:27:25;;;;;;;17.42;15.75;;;;;;;;;;4889325;29;20123;-69
2021/12/15 12:29:54;;;;;;;16.63;15.10;;;;;;;;;;4881093;29;20063;-70
2021/12/15 12:32:20;;;;;;;25.00;20.93;;;;;;;;;;4904233;29;20040;-69
2021/12/15 12:34:46;;;;;;;357.88;111.70;;;;;;;;;;4890910;29;20296;-69
2021/12/15 12:37:14;;;;;;;20.55;18.48;;;;;;;;;;4890458;29;20103;-70
2021/12/15 12:39:41;;;;;;;15.18;13.98;;;;;;;;;;4889854;29;20124;-69
2021/12/15 12:42:07;;;;;;;18.48;16.92;;;;;;;;;;4890270;29;20052;-69
2021/12/15 12:44:38;;;;;;;14.45;13.35;;;;;;;;;;4891313;29;20036;-69
2021/12/15 12:47:19;;;;;;;15.10;13.85;;;;;;;;;;4890886;29;20080;-69
2021/12/15 13:00:52;;;;;;;14.82;13.82;;;;;;;;;;4888735;29;20513;-70
2021/12/15 13:03:30;;;;;;;14.40;13.30;;;;;;;;;;4887632;29;20044;-69
2021/12/15 13:06:05;;;;;;;15.35;14.15;;;;;;;;;;4884320;29;20135;-69
2021/12/15 13:08:45;;;;;;;15.90;14.60;;;;;;;;;;4887745;29;20071;-69
2021/12/15 13:11:18;;;;;;;15.52;14.20;;;;;;;;;;4903961;29;20032;-69
2021/12/15 13:13:53;;;;;;;15.65;14.43;;;;;;;;;;4890744;29;20559;-70
2021/12/15 13:16:29;;;;;;;14.70;13.32;;;;;;;;;;4888686;29;20036;-70
2021/12/15 13:19:15;;;;;;;13.90;12.70;;;;;;;;;;4890762;29;20028;-69
2021/12/15 13:21:46;;;;;;;13.27;12.15;;;;;;;;;;4890180;29;20044;-69
2021/12/15 13:30:06;;;;;;;13.75;12.50;;;;;;;;;;4888021;29;20375;-70
2021/12/15 13:32:37;;;;;;;12.00;11.10;;;;;;;;;;4905329;29;20056;-69
2021/12/15 13:35:03;;;;;;;12.10;11.20;;;;;;;;;;4890703;29;20051;-69
2021/12/15 13:37:58;;;;;;;15.45;13.90;;;;;;;;;;4906628;29;20382;-69
2021/12/15 13:40:53;;;;;;;12.25;11.18;;;;;;;;;;4908416;29;20073;-70
2021/12/15 13:44:03;;;;;;;11.18;10.30;;;;;;;;;;4864961;29;20517;-69
2021/12/15 13:46:37;;;;;;;12.10;11.23;;;;;;;;;;4851208;29;20510;-70
2021/12/15 13:49:08;;;;;;;11.15;10.25;;;;;;;;;;4858963;29;20048;-69
2021/12/15 13:51:50;;;;;;;11.70;10.80;;;;;;;;;;4862527;29;20103;-70
2021/12/15 13:54:32;;;;;;;11.90;10.90;;;;;;;;;;4861676;29;20497;-70
2021/12/15 13:57:01;;;;;;;11.73;10.82;;;;;;;;;;4848615;29;20073;-71
2021/12/15 13:59:35;;;;;;;11.87;10.97;;;;;;;;;;4856236;29;20041;-69
2021/12/15 14:02:09;;;;;;;11.10;10.30;;;;;;;;;;4866985;29;20048;-71
2021/12/15 14:04:51;;;;;;;11.95;11.05;;;;;;;;;;4871214;29;20040;-70
2021/12/15 14:07:39;;;;;;;12.32;11.32;;;;;;;;;;4861170;29;20096;-69
2021/12/15 14:10:11;;;;;;;12.43;11.50;;;;;;;;;;4869272;29;20344;-69
2021/12/15 14:12:45;;;;;;;12.48;11.48;;;;;;;;;;4858286;29;20357;-69
2021/12/15 14:15:35;;;;;;;13.93;12.60;;;;;;;;;;4845756;29;20713;-69
2021/12/15 14:18:10;;;;;;;14.02;12.93;;;;;;;;;;4855679;29;20061;-69
2021/12/15 14:20:40;;;;;;;12.80;11.70;;;;;;;;;;4882083;29;20055;-70
2021/12/15 14:23:12;;;;;;;11.93;11.02;;;;;;;;;;4891796;29;20049;-69
2021/12/15 14:25:38;;;;;;;15.40;13.95;;;;;;;;;;4891900;29;20040;-69
2021/12/15 14:28:13;;;;;;;13.88;12.77;;;;;;;;;;4876766;29;20120;-68
2021/12/15 14:30:41;;;;;;;12.85;11.93;;;;;;;;;;4895471;29;20293;-69
2021/12/15 14:33:40;;;;;;;13.65;12.55;;;;;;;;;;4898013;29;20041;-68
2021/12/15 14:36:15;;;;;;;13.63;12.52;;;;;;;;;;4893056;29;20092;-68
2021/12/15 14:38:48;;;;;;;17.73;16.02;;;;;;;;;;4896867;29;20045;-68
2021/12/15 14:41:23;;;;;;;13.75;12.55;;;;;;;;;;4893330;29;20043;-69
2021/12/15 14:44:17;;;;;;;16.65;14.98;;;;;;;;;;4906174;29;20052;-69
2021/12/15 14:46:44;;;;;;;14.57;13.27;;;;;;;;;;4890155;29;20053;-70
2021/12/15 14:49:16;;;;;;;16.10;14.75;;;;;;;;;;4891491;29;20051;-69
2021/12/15 14:51:46;;;;;;;14.35;13.05;;;;;;;;;;4890462;29;20115;-68
2021/12/15 14:54:14;;;;;;;14.65;13.38;;;;;;;;;;4889968;29;20036;-68
2021/12/15 14:56:55;;;;;;;15.20;13.77;;;;;;;;;;4892919;29;20056;-68
2021/12/15 14:59:34;;;;;;;17.80;15.25;;;;;;;;;;4886708;29;20100;-69
2021/12/15 15:02:08;;;;;;;16.55;15.15;;;;;;;;;;4892615;29;20036;-68
2021/12/15 15:04:36;;;;;;;15.73;14.27;;;;;;;;;;4897095;29;20804;-69
2021/12/15 15:07:06;;;;;;;42.63;26.15;;;;;;;;;;4894274;29;20032;-69
2021/12/15 15:09:37;;;;;;;28.83;20.13;;;;;;;;;;4890389;29;20115;-69
2021/12/15 15:12:08;;;;;;;13.85;12.55;;;;;;;;;;4906225;29;20048;-69
2021/12/15 15:14:41;;;;;;;17.50;15.93;;;;;;;;;;4894858;29;20412;-68
2021/12/15 15:17:15;;;;;;;14.30;13.15;;;;;;;;;;4892984;29;20620;-69
2021/12/15 15:19:52;;;;;;;13.90;12.63;;;;;;;;;;4887325;29;20096;-69
2021/12/15 15:22:24;;;;;;;14.13;12.77;;;;;;;;;;4886936;29;20045;-69
2021/12/15 15:24:52;;;;;;;13.57;12.27;;;;;;;;;;4903930;29;20532;-69
2021/12/15 15:27:19;;;;;;;12.95;11.85;;;;;;;;;;4886665;29;20032;-69
2021/12/15 15:29:50;;;;;;;13.45;12.35;;;;;;;;;;4890714;29;20036;-68
2021/12/15 15:32:20;;;;;;;16.23;14.63;;;;;;;;;;4890637;29;20067;-69
2021/12/15 15:34:48;;;;;;;78.10;29.65;;;;;;;;;;4892380;29;20051;-68
2021/12/15 15:37:21;;;;;;;191.88;46.65;;;;;;;;;;4889788;29;20037;-69
2021/12/15 15:40:06;;;;;;;97.25;45.90;;;;;;;;;;4905345;29;20414;-69
2021/12/15 15:42:31;;;;;;;26.35;19.45;;;;;;;;;;4891221;29;20132;-68
2021/12/15 15:44:57;;;;;;;15.52;14.23;;;;;;;;;;4887324;29;20124;-68
2021/12/15 15:47:23;;;;;;;18.33;16.63;;;;;;;;;;4890720;29;20091;-69
2021/12/15 15:50:05;;;;;;;17.73;16.13;;;;;;;;;;4890715;29;20048;-70
2021/12/15 15:52:40;;;;;;;16.65;15.07;;;;;;;;;;4892398;29;20396;-70
2021/12/15 15:55:07;;;;;;;15.73;14.43;;;;;;;;;;4884751;29;20036;-70
2021/12/15 15:57:32;;;;;;;16.70;15.27;;;;;;;;;;4889469;29;20523;-70